createdAt,value
2023-04-29T00:00:36.038Z,25.72
2023-04-29T00:01:36.059Z,25.72
2023-04-29T00:02:36.198Z,25.75
2023-04-29T00:03:36.179Z,25.73
2023-04-29T00:04:36.127Z,25.73
2023-04-29T00:05:36.102Z,25.75
2023-04-29T00:06:35.982Z,25.72
2023-04-29T00:07:35.962Z,25.73
2023-04-29T00:08:35.958Z,25.72
2023-04-29T00:09:35.944Z,25.73
2023-04-29T00:10:35.958Z,25.72
2023-04-29T00:11:35.897Z,25.73
2023-04-29T00:12:35.873Z,25.73
2023-04-29T00:13:35.843Z,25.75
2023-04-29T00:14:35.824Z,25.72
2023-04-29T00:15:35.815Z,25.73
2023-04-29T00:16:35.862Z,25.73
2023-04-29T00:17:35.833Z,25.70
2023-04-29T00:18:35.789Z,25.72
2023-04-29T00:19:35.763Z,25.72
2023-04-29T00:20:35.750Z,25.72
2023-04-29T00:21:35.731Z,25.72
2023-04-29T00:22:35.708Z,25.72
2023-04-29T00:23:35.687Z,25.72
2023-04-29T00:24:35.675Z,25.73
2023-04-29T00:25:35.621Z,25.73
2023-04-29T00:26:35.600Z,25.72
2023-04-29T00:27:35.591Z,25.70
2023-04-29T00:28:35.589Z,25.73
2023-04-29T00:29:35.570Z,25.70
2023-04-29T00:30:35.668Z,25.70
2023-04-29T00:31:35.603Z,25.72
2023-04-29T00:32:35.539Z,25.70
2023-04-29T00:33:35.493Z,25.72
2023-04-29T00:34:35.462Z,25.72
2023-04-29T00:35:35.434Z,25.72
2023-04-29T00:36:35.401Z,25.72
2023-04-29T00:37:35.383Z,25.70
2023-04-29T00:38:35.389Z,25.72
2023-04-29T00:39:35.340Z,25.72
2023-04-29T00:40:35.316Z,25.70
2023-04-29T00:41:35.311Z,25.72
2023-04-29T00:42:35.260Z,25.70
2023-04-29T00:43:35.221Z,25.70
2023-04-29T00:44:35.204Z,25.70
2023-04-29T00:45:35.197Z,25.72
2023-04-29T00:46:35.232Z,25.72
2023-04-29T00:47:35.174Z,25.70
2023-04-29T00:48:35.123Z,25.70
2023-04-29T00:49:35.098Z,25.70
2023-04-29T00:50:35.087Z,25.68
2023-04-29T00:51:35.057Z,25.70
2023-04-29T00:52:35.062Z,25.70
2023-04-29T00:53:35.064Z,25.68
2023-04-29T00:54:35.036Z,25.69
2023-04-29T00:55:35.052Z,25.69
2023-04-29T00:56:35.039Z,25.69
2023-04-29T00:57:35.027Z,25.69
2023-04-29T00:58:35.018Z,25.70
2023-04-29T00:59:35.052Z,25.69
2023-04-29T01:00:35.038Z,25.70
2023-04-29T01:01:35.005Z,25.72
2023-04-29T01:02:35.072Z,25.69
2023-04-29T01:03:35.169Z,25.69
2023-04-29T01:04:35.104Z,25.68
2023-04-29T01:05:34.920Z,25.69
2023-04-29T01:06:34.881Z,25.68
2023-04-29T01:07:34.862Z,25.68
2023-04-29T01:08:34.817Z,25.69
2023-04-29T01:09:34.793Z,25.69
2023-04-29T01:10:34.769Z,25.68
2023-04-29T01:11:34.780Z,25.69
2023-04-29T01:12:34.719Z,25.66
2023-04-29T01:13:34.688Z,25.68
2023-04-29T01:14:34.664Z,25.69
2023-04-29T01:15:34.646Z,25.69
2023-04-29T01:16:34.737Z,25.70
2023-04-29T01:17:34.635Z,25.69
2023-04-29T01:18:34.589Z,25.68
2023-04-29T01:19:34.565Z,25.68
2023-04-29T01:20:34.524Z,25.66
2023-04-29T01:21:34.521Z,25.68
2023-04-29T01:22:34.502Z,25.68
2023-04-29T01:23:34.464Z,25.68
2023-04-29T01:24:34.451Z,25.66
2023-04-29T01:25:34.440Z,25.68
2023-04-29T01:26:34.406Z,25.68
2023-04-29T01:27:34.387Z,25.66
2023-04-29T01:28:34.382Z,25.68
2023-04-29T01:29:34.350Z,25.68
2023-04-29T01:30:34.350Z,25.68
2023-04-29T01:31:34.329Z,25.65
2023-04-29T01:32:34.756Z,25.66
2023-04-29T01:33:34.250Z,25.68
2023-04-29T01:34:34.228Z,25.69
2023-04-29T01:35:34.210Z,25.65
2023-04-29T01:36:34.202Z,25.68
2023-04-29T01:37:34.181Z,25.66
2023-04-29T01:38:34.178Z,25.68
2023-04-29T01:39:34.135Z,25.65
2023-04-29T01:40:34.141Z,25.68
2023-04-29T01:41:34.117Z,25.66
2023-04-29T01:42:34.124Z,25.66
2023-04-29T01:43:34.071Z,25.68
2023-04-29T01:44:34.065Z,25.68
2023-04-29T01:45:34.062Z,25.68
2023-04-29T01:46:34.080Z,25.68
2023-04-29T01:47:34.080Z,25.66
2023-04-29T01:48:33.989Z,25.66
2023-04-29T01:49:33.958Z,25.68
2023-04-29T01:50:33.925Z,25.66
2023-04-29T01:51:33.918Z,25.65
2023-04-29T01:52:33.895Z,25.66
2023-04-29T01:53:33.866Z,25.65
2023-04-29T01:54:33.842Z,25.66
2023-04-29T01:55:33.833Z,25.66
2023-04-29T01:56:33.813Z,25.63
2023-04-29T01:57:33.775Z,25.68
2023-04-29T01:58:33.760Z,25.66
2023-04-29T01:59:33.745Z,25.63
2023-04-29T02:00:33.718Z,25.65
2023-04-29T02:01:33.699Z,25.66
2023-04-29T02:02:33.794Z,25.65
2023-04-29T02:03:33.822Z,25.63
2023-04-29T02:04:33.687Z,25.65
2023-04-29T02:05:33.604Z,25.62
2023-04-29T02:06:33.591Z,25.65
2023-04-29T02:07:33.555Z,25.63
2023-04-29T02:08:33.537Z,25.63
2023-04-29T02:09:33.516Z,25.63
2023-04-29T02:10:33.511Z,25.65
2023-04-29T02:11:33.476Z,25.66
2023-04-29T02:12:33.446Z,25.63
2023-04-29T02:13:33.425Z,25.63
2023-04-29T02:14:34.566Z,25.63
2023-04-29T02:15:33.366Z,25.65
2023-04-29T02:16:33.379Z,25.65
2023-04-29T02:17:33.345Z,25.62
2023-04-29T02:18:33.293Z,25.65
2023-04-29T02:19:33.283Z,25.63
2023-04-29T02:20:33.240Z,25.63
2023-04-29T02:21:33.234Z,25.62
2023-04-29T02:22:33.192Z,25.65
2023-04-29T02:23:33.173Z,25.61
2023-04-29T02:24:33.142Z,25.63
2023-04-29T02:25:33.124Z,25.62
2023-04-29T02:26:33.099Z,25.63
2023-04-29T02:27:33.070Z,25.65
2023-04-29T02:28:33.049Z,25.62
2023-04-29T02:29:33.017Z,25.63
2023-04-29T02:30:33.009Z,25.63
2023-04-29T02:31:32.987Z,25.63
2023-04-29T02:32:32.959Z,25.62
2023-04-29T02:33:32.913Z,25.62
2023-04-29T02:34:32.881Z,25.58
2023-04-29T02:35:32.863Z,25.62
2023-04-29T02:36:32.882Z,25.63
2023-04-29T02:37:32.815Z,25.62
2023-04-29T02:38:32.773Z,25.62
2023-04-29T02:39:32.755Z,25.63
2023-04-29T02:40:32.728Z,25.59
2023-04-29T02:41:32.698Z,25.62
2023-04-29T02:42:32.659Z,25.63
2023-04-29T02:43:32.663Z,25.62
2023-04-29T02:44:32.615Z,25.62
2023-04-29T02:45:32.622Z,25.62
2023-04-29T02:46:32.560Z,25.62
2023-04-29T02:47:32.545Z,25.62
2023-04-29T02:48:32.501Z,25.59
2023-04-29T02:49:32.489Z,25.62
2023-04-29T02:50:32.466Z,25.61
2023-04-29T02:51:32.434Z,25.62
2023-04-29T02:52:32.404Z,25.63
2023-04-29T02:53:32.450Z,25.65
2023-04-29T02:54:32.363Z,25.61
2023-04-29T02:55:32.337Z,25.62
2023-04-29T02:56:32.364Z,25.63
2023-04-29T02:57:32.307Z,25.63
2023-04-29T02:58:32.262Z,25.61
2023-04-29T02:59:32.228Z,25.62
2023-04-29T03:00:32.211Z,25.61
2023-04-29T03:01:32.265Z,25.61
2023-04-29T03:02:32.271Z,25.63
2023-04-29T03:03:32.319Z,25.61
2023-04-29T03:04:32.143Z,25.59
2023-04-29T03:05:32.082Z,25.61
2023-04-29T03:06:32.058Z,25.59
2023-04-29T03:07:32.045Z,25.59
2023-04-29T03:08:32.016Z,25.61
2023-04-29T03:09:31.981Z,25.59
2023-04-29T03:10:31.946Z,25.61
2023-04-29T03:11:31.929Z,25.59
2023-04-29T03:12:31.891Z,25.62
2023-04-29T03:13:31.872Z,25.61
2023-04-29T03:14:31.858Z,25.59
2023-04-29T03:15:31.817Z,25.61
2023-04-29T03:16:31.833Z,25.62
2023-04-29T03:17:31.771Z,25.61
2023-04-29T03:18:31.719Z,25.61
2023-04-29T03:19:31.692Z,25.61
2023-04-29T03:20:31.664Z,25.59
2023-04-29T03:21:31.632Z,25.59
2023-04-29T03:22:31.660Z,25.61
2023-04-29T03:23:31.569Z,25.61
2023-04-29T03:24:31.541Z,25.61
2023-04-29T03:25:31.525Z,25.59
2023-04-29T03:26:31.502Z,25.62
2023-04-29T03:27:31.493Z,25.61
2023-04-29T03:28:31.456Z,25.58
2023-04-29T03:29:31.429Z,25.59
2023-04-29T03:30:31.395Z,25.59
2023-04-29T03:31:31.395Z,25.58
2023-04-29T03:32:31.373Z,25.59
2023-04-29T03:33:31.327Z,25.59
2023-04-29T03:34:31.299Z,25.56
2023-04-29T03:35:31.267Z,25.56
2023-04-29T03:36:31.230Z,25.58
2023-04-29T03:37:31.207Z,25.58
2023-04-29T03:38:31.170Z,25.59
2023-04-29T03:39:31.155Z,25.56
2023-04-29T03:40:31.119Z,25.59
2023-04-29T03:41:31.103Z,25.59
2023-04-29T03:42:31.070Z,25.59
2023-04-29T03:43:31.035Z,25.59
2023-04-29T03:44:31.008Z,25.59
2023-04-29T03:45:30.983Z,25.58
2023-04-29T03:46:31.032Z,25.58
2023-04-29T03:47:31.004Z,25.55
2023-04-29T03:48:30.887Z,25.56
2023-04-29T03:49:30.878Z,25.59
2023-04-29T03:50:30.850Z,25.56
2023-04-29T03:51:30.854Z,25.59
2023-04-29T03:52:30.818Z,25.58
2023-04-29T03:53:30.788Z,25.56
2023-04-29T03:54:30.768Z,25.58
2023-04-29T03:55:30.746Z,25.58
2023-04-29T03:56:30.710Z,25.61
2023-04-29T03:57:30.699Z,25.58
2023-04-29T03:58:30.680Z,25.56
2023-04-29T03:59:30.657Z,25.56
2023-04-29T04:00:30.600Z,25.58
2023-04-29T04:01:30.594Z,25.58
2023-04-29T04:02:30.692Z,25.56
2023-04-29T04:03:30.673Z,25.55
2023-04-29T04:04:30.662Z,25.56
2023-04-29T04:05:30.515Z,25.58
2023-04-29T04:06:30.456Z,25.58
2023-04-29T04:07:30.446Z,25.56
2023-04-29T04:08:30.402Z,25.58
2023-04-29T04:09:30.389Z,25.56
2023-04-29T04:10:30.390Z,25.58
2023-04-29T04:11:30.406Z,25.56
2023-04-29T04:12:30.411Z,25.56
2023-04-29T04:13:30.398Z,25.58
2023-04-29T04:14:30.369Z,25.55
2023-04-29T04:15:30.353Z,25.56
2023-04-29T04:16:30.364Z,25.56
2023-04-29T04:17:30.301Z,25.58
2023-04-29T04:18:30.284Z,25.58
2023-04-29T04:19:30.259Z,25.56
2023-04-29T04:20:30.244Z,25.53
2023-04-29T04:21:30.225Z,25.56
2023-04-29T04:22:30.191Z,25.55
2023-04-29T04:23:30.179Z,25.56
2023-04-29T04:24:30.141Z,25.55
2023-04-29T04:25:30.122Z,25.56
2023-04-29T04:26:30.100Z,25.55
2023-04-29T04:27:30.090Z,25.55
2023-04-29T04:28:30.068Z,25.55
2023-04-29T04:29:30.053Z,25.56
2023-04-29T04:30:30.001Z,25.56
2023-04-29T04:31:30.144Z,25.56
2023-04-29T04:32:30.054Z,25.55
2023-04-29T04:33:29.957Z,25.58
2023-04-29T04:34:29.940Z,25.55
2023-04-29T04:35:29.913Z,25.58
2023-04-29T04:36:29.897Z,25.56
2023-04-29T04:37:29.883Z,25.53
2023-04-29T04:38:29.854Z,25.55
2023-04-29T04:39:29.837Z,25.56
2023-04-29T04:40:29.821Z,25.56
2023-04-29T04:41:29.786Z,25.55
2023-04-29T04:42:29.759Z,25.55
2023-04-29T04:43:29.724Z,25.55
2023-04-29T04:44:29.703Z,25.55
2023-04-29T04:45:29.696Z,25.56
2023-04-29T04:46:29.663Z,25.56
2023-04-29T04:47:29.703Z,25.56
2023-04-29T04:48:29.626Z,25.52
2023-04-29T04:49:29.604Z,25.56
2023-04-29T04:50:29.593Z,25.55
2023-04-29T04:51:29.572Z,25.56
2023-04-29T04:52:29.548Z,25.55
2023-04-29T04:53:29.527Z,25.53
2023-04-29T04:54:29.493Z,25.55
2023-04-29T04:55:29.474Z,25.55
2023-04-29T04:56:29.470Z,25.56
2023-04-29T04:57:29.452Z,25.58
2023-04-29T04:58:29.434Z,25.55
2023-04-29T04:59:29.416Z,25.55
2023-04-29T05:00:29.404Z,25.55
2023-04-29T05:01:29.423Z,25.55
2023-04-29T05:02:29.497Z,25.53
2023-04-29T05:03:29.461Z,25.55
2023-04-29T05:04:29.407Z,25.56
2023-04-29T05:05:29.286Z,25.53
2023-04-29T05:06:29.285Z,25.55
2023-04-29T05:07:29.288Z,25.56
2023-04-29T05:08:29.210Z,25.55
2023-04-29T05:09:29.195Z,25.55
2023-04-29T05:10:29.157Z,25.56
2023-04-29T05:11:29.149Z,25.56
2023-04-29T05:12:29.111Z,25.55
2023-04-29T05:13:29.112Z,25.53
2023-04-29T05:14:29.061Z,25.55
2023-04-29T05:15:29.039Z,25.56
2023-04-29T05:16:29.074Z,25.56
2023-04-29T05:17:29.086Z,25.55
2023-04-29T05:18:28.958Z,25.55
2023-04-29T05:19:28.934Z,25.53
2023-04-29T05:20:28.899Z,25.55
2023-04-29T05:21:28.871Z,25.56
2023-04-29T05:22:28.835Z,25.55
2023-04-29T05:23:28.814Z,25.55
2023-04-29T05:24:28.792Z,25.58
2023-04-29T05:25:28.762Z,25.53
2023-04-29T05:26:28.738Z,25.55
2023-04-29T05:27:28.789Z,25.55
2023-04-29T05:28:28.700Z,25.56
2023-04-29T05:29:28.663Z,25.56
2023-04-29T05:30:28.675Z,25.53
2023-04-29T05:31:28.824Z,25.55
2023-04-29T05:32:28.717Z,25.55
2023-04-29T05:33:28.674Z,25.55
2023-04-29T05:34:28.686Z,25.55
2023-04-29T05:35:28.685Z,25.55
2023-04-29T05:36:28.691Z,25.55
2023-04-29T05:37:28.708Z,25.53
2023-04-29T05:38:28.705Z,25.55
2023-04-29T05:39:28.706Z,25.56
2023-04-29T05:40:28.714Z,25.56
2023-04-29T05:41:28.716Z,25.55
2023-04-29T05:42:28.732Z,25.55
2023-04-29T05:43:28.715Z,25.56
2023-04-29T05:44:28.752Z,25.55
2023-04-29T05:45:28.723Z,25.53
2023-04-29T05:46:28.769Z,25.55
2023-04-29T05:47:28.779Z,25.56
2023-04-29T05:48:28.718Z,25.55
2023-04-29T05:49:28.726Z,25.53
2023-04-29T05:50:28.694Z,25.58
2023-04-29T05:51:28.682Z,25.56
2023-04-29T05:52:28.676Z,25.55
2023-04-29T05:53:28.670Z,25.55
2023-04-29T05:54:28.649Z,25.58
2023-04-29T05:55:28.633Z,25.56
2023-04-29T05:56:28.626Z,25.56
2023-04-29T05:57:28.612Z,25.56
2023-04-29T05:58:28.585Z,25.55
2023-04-29T05:59:28.569Z,25.58
2023-04-29T06:00:28.555Z,25.56
2023-04-29T06:01:28.545Z,25.55
2023-04-29T06:02:28.742Z,25.58
2023-04-29T06:03:28.691Z,25.56
2023-04-29T06:04:28.761Z,25.56
2023-04-29T06:05:28.886Z,25.56
2023-04-29T06:06:28.642Z,25.56
2023-04-29T06:07:28.449Z,25.59
2023-04-29T06:08:28.432Z,25.59
2023-04-29T06:09:28.580Z,25.58
2023-04-29T06:10:28.463Z,25.58
2023-04-29T06:11:28.419Z,25.55
2023-04-29T06:12:28.461Z,25.59
2023-04-29T06:13:28.360Z,25.58
2023-04-29T06:14:28.340Z,25.59
2023-04-29T06:15:28.288Z,25.59
2023-04-29T06:16:28.314Z,25.59
2023-04-29T06:17:28.271Z,25.59
2023-04-29T06:18:28.232Z,25.59
2023-04-29T06:19:28.217Z,25.59
2023-04-29T06:20:28.256Z,25.61
2023-04-29T06:21:28.187Z,25.61
2023-04-29T06:22:28.164Z,25.59
2023-04-29T06:23:28.165Z,25.59
2023-04-29T06:24:28.127Z,25.61
2023-04-29T06:25:28.099Z,25.62
2023-04-29T06:26:28.181Z,25.59
2023-04-29T06:27:28.135Z,25.62
2023-04-29T06:28:28.038Z,25.62
2023-04-29T06:29:28.015Z,25.61
2023-04-29T06:30:28.060Z,25.63
2023-04-29T06:31:27.993Z,25.65
2023-04-29T06:32:28.032Z,25.63
2023-04-29T06:33:27.951Z,25.65
2023-04-29T06:34:27.923Z,25.65
2023-04-29T06:35:27.903Z,25.63
2023-04-29T06:36:27.876Z,25.65
2023-04-29T06:37:27.849Z,25.66
2023-04-29T06:38:27.836Z,25.66
2023-04-29T06:39:27.820Z,25.63
2023-04-29T06:40:27.808Z,25.68
2023-04-29T06:41:27.738Z,25.63
2023-04-29T06:42:27.716Z,25.66
2023-04-29T06:43:27.689Z,25.66
2023-04-29T06:44:27.705Z,25.70
2023-04-29T06:45:27.649Z,25.72
2023-04-29T06:46:27.623Z,25.72
2023-04-29T06:47:27.619Z,25.73
2023-04-29T06:48:27.555Z,25.73
2023-04-29T06:49:27.523Z,25.73
2023-04-29T06:50:27.509Z,25.70
2023-04-29T06:51:27.479Z,25.70
2023-04-29T06:52:27.447Z,25.72
2023-04-29T06:53:27.416Z,25.70
2023-04-29T06:54:27.384Z,25.75
2023-04-29T06:55:27.358Z,25.75
2023-04-29T06:56:27.345Z,25.80
2023-04-29T06:57:27.316Z,25.79
2023-04-29T06:58:27.285Z,25.80
2023-04-29T06:59:27.258Z,25.81
2023-04-29T07:00:27.258Z,25.84
2023-04-29T07:01:27.282Z,25.83
2023-04-29T07:02:27.370Z,25.79
2023-04-29T07:03:27.323Z,25.81
2023-04-29T07:04:27.333Z,25.84
2023-04-29T07:05:27.324Z,25.81
2023-04-29T07:06:27.346Z,25.84
2023-04-29T07:07:27.345Z,25.83
2023-04-29T07:08:27.358Z,25.84
2023-04-29T07:09:27.375Z,25.86
2023-04-29T07:10:27.410Z,25.83
2023-04-29T07:11:27.432Z,25.83
2023-04-29T07:12:27.436Z,25.84
2023-04-29T07:13:27.456Z,25.83
2023-04-29T07:14:27.471Z,25.87
2023-04-29T07:15:27.508Z,25.83
2023-04-29T07:16:27.578Z,25.86
2023-04-29T07:17:27.609Z,25.86
2023-04-29T07:18:27.588Z,25.84
2023-04-29T07:19:27.600Z,25.86
2023-04-29T07:20:27.645Z,25.89
2023-04-29T07:21:27.673Z,25.90
2023-04-29T07:22:27.729Z,25.89
2023-04-29T07:23:27.746Z,25.87
2023-04-29T07:24:27.788Z,25.87
2023-04-29T07:25:27.836Z,25.89
2023-04-29T07:26:27.835Z,25.91
2023-04-29T07:27:27.866Z,25.90
2023-04-29T07:28:27.824Z,25.90
2023-04-29T07:29:27.800Z,25.97
2023-04-29T07:30:27.772Z,25.94
2023-04-29T07:31:27.824Z,25.96
2023-04-29T07:32:27.761Z,25.97
2023-04-29T07:33:27.692Z,25.98
2023-04-29T07:34:27.676Z,25.98
2023-04-29T07:35:27.661Z,25.98
2023-04-29T07:36:27.657Z,26.01
2023-04-29T07:37:27.677Z,26.03
2023-04-29T07:38:27.701Z,26.00
2023-04-29T07:39:27.733Z,25.97
2023-04-29T07:40:27.763Z,25.98
2023-04-29T07:41:27.771Z,26.00
2023-04-29T07:42:27.815Z,26.01
2023-04-29T07:43:27.847Z,26.03
2023-04-29T07:44:27.899Z,26.03
2023-04-29T07:45:27.922Z,26.04
2023-04-29T07:46:27.978Z,26.05
2023-04-29T07:47:28.011Z,26.04
2023-04-29T07:48:28.033Z,26.04
2023-04-29T07:49:28.069Z,26.01
2023-04-29T07:50:28.112Z,26.05
2023-04-29T07:51:28.161Z,26.07
2023-04-29T07:52:28.200Z,26.07
2023-04-29T07:53:28.240Z,26.09
2023-04-29T07:54:28.275Z,26.08
2023-04-29T07:55:28.331Z,26.08
2023-04-29T07:56:28.354Z,26.07
2023-04-29T07:57:28.390Z,26.09
2023-04-29T07:58:28.425Z,26.11
2023-04-29T07:59:28.468Z,26.09
2023-04-29T08:00:28.506Z,26.08
2023-04-29T08:01:28.549Z,26.09
2023-04-29T08:02:28.685Z,26.14
2023-04-29T08:03:28.705Z,26.14
2023-04-29T08:04:28.814Z,26.13
2023-04-29T08:05:29.050Z,26.13
2023-04-29T08:06:28.711Z,26.14
2023-04-29T08:07:28.748Z,26.14
2023-04-29T08:08:28.846Z,26.14
2023-04-29T08:09:28.813Z,26.14
2023-04-29T08:10:28.866Z,26.15
2023-04-29T08:11:28.879Z,26.18
2023-04-29T08:12:28.921Z,26.15
2023-04-29T08:13:28.958Z,26.18
2023-04-29T08:14:29.106Z,26.18
2023-04-29T08:15:29.054Z,26.20
2023-04-29T08:16:29.083Z,26.17
2023-04-29T08:17:29.080Z,26.18
2023-04-29T08:18:29.101Z,26.20
2023-04-29T08:19:29.144Z,26.18
2023-04-29T08:20:29.216Z,26.18
2023-04-29T08:21:29.273Z,26.21
2023-04-29T08:22:29.267Z,26.18
2023-04-29T08:23:29.252Z,26.20
2023-04-29T08:24:29.364Z,26.21
2023-04-29T08:25:29.337Z,26.20
2023-04-29T08:26:29.367Z,26.21
2023-04-29T08:27:29.397Z,26.20
2023-04-29T08:28:29.618Z,26.21
2023-04-29T08:29:29.384Z,26.22
2023-04-29T08:30:29.502Z,26.24
2023-04-29T08:31:29.556Z,26.24
2023-04-29T08:32:29.576Z,26.24
2023-04-29T08:33:29.531Z,26.24
2023-04-29T08:34:29.518Z,26.25
2023-04-29T08:35:29.581Z,26.25
2023-04-29T08:36:29.568Z,26.25
2023-04-29T08:37:29.615Z,26.24
2023-04-29T08:38:29.624Z,26.28
2023-04-29T08:39:29.630Z,26.27
2023-04-29T08:40:29.646Z,26.22
2023-04-29T08:41:29.664Z,26.24
2023-04-29T08:42:29.813Z,26.25
2023-04-29T08:43:29.727Z,26.25
2023-04-29T08:44:29.733Z,26.25
2023-04-29T08:45:29.784Z,26.22
2023-04-29T08:46:29.793Z,26.25
2023-04-29T08:47:29.866Z,26.24
2023-04-29T08:48:29.963Z,26.25
2023-04-29T08:49:29.852Z,26.27
2023-04-29T08:50:29.874Z,26.28
2023-04-29T08:51:29.916Z,26.27
2023-04-29T08:52:29.916Z,26.28
2023-04-29T08:53:29.942Z,26.28
2023-04-29T08:54:29.974Z,26.27
2023-04-29T08:55:29.991Z,26.30
2023-04-29T08:56:30.020Z,26.30
2023-04-29T08:57:30.023Z,26.27
2023-04-29T08:58:30.054Z,26.27
2023-04-29T08:59:30.054Z,26.27
2023-04-29T09:00:30.077Z,26.28
2023-04-29T09:01:30.127Z,26.31
2023-04-29T09:02:30.141Z,26.31
2023-04-29T09:03:30.174Z,26.32
2023-04-29T09:04:30.208Z,26.31
2023-04-29T09:05:30.105Z,26.31
2023-04-29T09:06:30.074Z,26.31
2023-04-29T09:07:30.048Z,26.34
2023-04-29T09:08:30.025Z,26.31
2023-04-29T09:09:29.974Z,26.30
2023-04-29T09:10:29.948Z,26.30
2023-04-29T09:11:29.922Z,26.27
2023-04-29T09:12:29.894Z,26.31
2023-04-29T09:13:29.894Z,26.28
2023-04-29T09:14:29.864Z,26.25
2023-04-29T09:15:29.818Z,26.28
2023-04-29T09:16:29.878Z,26.30
2023-04-29T09:17:29.816Z,26.27
2023-04-29T09:18:29.771Z,26.27
2023-04-29T09:19:29.775Z,26.30
2023-04-29T09:20:29.810Z,26.31
2023-04-29T09:21:29.790Z,26.31
2023-04-29T09:22:29.840Z,26.30
2023-04-29T09:23:29.832Z,26.30
2023-04-29T09:24:29.847Z,26.32
2023-04-29T09:25:29.870Z,26.34
2023-04-29T09:26:29.911Z,26.32
2023-04-29T09:27:29.885Z,26.36
2023-04-29T09:28:29.899Z,26.36
2023-04-29T09:29:29.856Z,26.35
2023-04-29T09:30:29.853Z,26.35
2023-04-29T09:31:29.824Z,26.35
2023-04-29T09:32:29.997Z,26.38
2023-04-29T09:33:29.699Z,26.36
2023-04-29T09:34:29.668Z,26.36
2023-04-29T09:35:29.631Z,26.36
2023-04-29T09:36:29.600Z,26.36
2023-04-29T09:37:29.554Z,26.39
2023-04-29T09:38:29.526Z,26.38
2023-04-29T09:39:29.485Z,26.38
2023-04-29T09:40:29.471Z,26.39
2023-04-29T09:41:29.407Z,26.39
2023-04-29T09:42:29.382Z,26.38
2023-04-29T09:43:29.368Z,26.39
2023-04-29T09:44:32.101Z,26.41
2023-04-29T09:45:29.293Z,26.42
2023-04-29T09:46:29.352Z,26.42
2023-04-29T09:47:29.270Z,26.39
2023-04-29T09:48:29.196Z,26.42
2023-04-29T09:49:29.177Z,26.42
2023-04-29T09:50:29.138Z,26.43
2023-04-29T09:51:29.106Z,26.42
2023-04-29T09:52:29.100Z,26.42
2023-04-29T09:53:29.080Z,26.43
2023-04-29T09:54:29.038Z,26.42
2023-04-29T09:55:29.006Z,26.38
2023-04-29T09:56:28.967Z,26.36
2023-04-29T09:57:28.941Z,26.36
2023-04-29T09:58:28.905Z,26.38
2023-04-29T09:59:28.876Z,26.39
2023-04-29T10:00:28.837Z,26.39
2023-04-29T10:01:28.849Z,26.39
2023-04-29T10:02:28.881Z,26.38
2023-04-29T10:03:28.900Z,26.41
2023-04-29T10:04:28.820Z,26.41
2023-04-29T10:05:28.752Z,26.42
2023-04-29T10:06:28.740Z,26.41
2023-04-29T10:07:28.698Z,26.41
2023-04-29T10:08:28.681Z,26.42
2023-04-29T10:09:28.648Z,26.43
2023-04-29T10:10:30.214Z,26.46
2023-04-29T10:11:28.590Z,26.43
2023-04-29T10:12:28.562Z,26.43
2023-04-29T10:13:28.533Z,26.46
2023-04-29T10:14:28.495Z,26.43
2023-04-29T10:15:28.472Z,26.46
2023-04-29T10:16:28.552Z,26.45
2023-04-29T10:17:28.419Z,26.45
2023-04-29T10:18:28.446Z,26.45
2023-04-29T10:19:28.477Z,26.46
2023-04-29T10:20:28.390Z,26.45
2023-04-29T10:21:28.397Z,26.45
2023-04-29T10:22:28.410Z,26.46
2023-04-29T10:23:28.434Z,26.46
2023-04-29T10:24:28.434Z,26.46
2023-04-29T10:25:28.439Z,26.48
2023-04-29T10:26:28.431Z,26.48
2023-04-29T10:27:28.433Z,26.48
2023-04-29T10:28:28.444Z,26.46
2023-04-29T10:29:28.451Z,26.46
2023-04-29T10:30:28.460Z,26.43
2023-04-29T10:31:28.553Z,26.45
2023-04-29T10:32:30.562Z,26.46
2023-04-29T10:33:29.466Z,26.43
2023-04-29T10:34:28.429Z,26.43
2023-04-29T10:35:28.368Z,26.43
2023-04-29T10:36:28.331Z,26.43
2023-04-29T10:37:28.304Z,26.45
2023-04-29T10:38:28.311Z,26.45
2023-04-29T10:39:28.236Z,26.43
2023-04-29T10:40:28.216Z,26.45
2023-04-29T10:41:28.172Z,26.42
2023-04-29T10:42:28.150Z,26.45
2023-04-29T10:43:28.140Z,26.43
2023-04-29T10:44:28.095Z,26.41
2023-04-29T10:45:28.064Z,26.43
2023-04-29T10:46:28.049Z,26.42
2023-04-29T10:47:28.045Z,26.43
2023-04-29T10:48:27.994Z,26.46
2023-04-29T10:49:28.003Z,26.46
2023-04-29T10:50:28.005Z,26.45
2023-04-29T10:51:28.008Z,26.46
2023-04-29T10:52:28.010Z,26.46
2023-04-29T10:53:28.050Z,26.46
2023-04-29T10:54:28.039Z,26.45
2023-04-29T10:55:28.046Z,26.46
2023-04-29T10:56:28.045Z,26.48
2023-04-29T10:57:28.046Z,26.48
2023-04-29T10:58:28.053Z,26.49
2023-04-29T10:59:28.120Z,26.46
2023-04-29T11:00:28.070Z,26.50
2023-04-29T11:01:28.073Z,26.46
2023-04-29T11:02:28.103Z,26.48
2023-04-29T11:03:28.130Z,26.46
2023-04-29T11:04:28.070Z,26.48
2023-04-29T11:05:28.069Z,26.45
2023-04-29T11:06:28.074Z,26.45
2023-04-29T11:07:28.133Z,26.45
2023-04-29T11:08:28.097Z,26.46
2023-04-29T11:09:28.104Z,26.46
2023-04-29T11:10:28.184Z,26.41
2023-04-29T11:11:28.417Z,26.45
2023-04-29T11:12:28.111Z,26.45
2023-04-29T11:13:28.114Z,26.45
2023-04-29T11:14:28.122Z,26.45
2023-04-29T11:15:28.119Z,26.46
2023-04-29T11:16:28.147Z,26.49
2023-04-29T11:17:28.501Z,26.49
2023-04-29T11:18:28.148Z,26.49
2023-04-29T11:19:28.128Z,26.49
2023-04-29T11:20:28.138Z,26.49
2023-04-29T11:21:28.142Z,26.48
2023-04-29T11:22:28.145Z,26.48
2023-04-29T11:23:28.600Z,26.48
2023-04-29T11:24:28.153Z,26.48
2023-04-29T11:25:28.166Z,26.49
2023-04-29T11:26:28.256Z,26.50
2023-04-29T11:27:28.171Z,26.48
2023-04-29T11:28:28.187Z,26.49
2023-04-29T11:29:28.195Z,26.49
2023-04-29T11:30:28.206Z,26.49
2023-04-29T11:31:28.851Z,26.50
2023-04-29T11:32:28.293Z,26.49
2023-04-29T11:33:28.317Z,26.52
2023-04-29T11:34:28.239Z,26.49
2023-04-29T11:35:28.257Z,26.50
2023-04-29T11:36:28.215Z,26.49
2023-04-29T11:37:28.180Z,26.52
2023-04-29T11:38:28.156Z,26.49
2023-04-29T11:39:28.137Z,26.50
2023-04-29T11:40:28.109Z,26.53
2023-04-29T11:41:28.071Z,26.55
2023-04-29T11:42:28.115Z,26.53
2023-04-29T11:43:28.039Z,26.53
2023-04-29T11:44:27.997Z,26.52
2023-04-29T11:45:27.966Z,26.50
2023-04-29T11:46:27.996Z,26.52
2023-04-29T11:47:27.956Z,26.52
2023-04-29T11:48:27.905Z,26.52
2023-04-29T11:49:27.841Z,26.55
2023-04-29T11:50:27.829Z,26.57
2023-04-29T11:51:27.800Z,26.56
2023-04-29T11:52:27.775Z,26.55
2023-04-29T11:53:27.794Z,26.57
2023-04-29T11:54:27.690Z,26.59
2023-04-29T11:55:27.668Z,26.55
2023-04-29T11:56:27.664Z,26.56
2023-04-29T11:57:27.674Z,26.57
2023-04-29T11:58:27.707Z,26.53
2023-04-29T11:59:27.662Z,26.55
2023-04-29T12:00:27.669Z,26.50
2023-04-29T12:01:27.667Z,26.52
2023-04-29T12:02:27.799Z,26.52
2023-04-29T12:03:27.859Z,26.52
2023-04-29T12:04:27.891Z,26.52
2023-04-29T12:05:27.671Z,26.55
2023-04-29T12:06:27.662Z,26.55
2023-04-29T12:07:27.655Z,26.52
2023-04-29T12:08:27.658Z,26.53
2023-04-29T12:09:27.657Z,26.52
2023-04-29T12:10:27.657Z,26.52
2023-04-29T12:11:27.658Z,26.55
2023-04-29T12:12:27.655Z,26.55
2023-04-29T12:13:27.648Z,26.56
2023-04-29T12:14:27.633Z,26.53
2023-04-29T12:15:27.558Z,26.57
2023-04-29T12:16:27.558Z,26.56
2023-04-29T12:17:27.522Z,26.57
2023-04-29T12:18:27.485Z,26.57
2023-04-29T12:19:27.423Z,26.57
2023-04-29T12:20:27.392Z,26.56
2023-04-29T12:21:27.360Z,26.56
2023-04-29T12:22:27.328Z,26.55
2023-04-29T12:23:27.301Z,26.55
2023-04-29T12:24:27.282Z,26.55
2023-04-29T12:25:27.236Z,26.50
2023-04-29T12:26:27.200Z,26.52
2023-04-29T12:27:27.194Z,26.52
2023-04-29T12:28:27.157Z,26.52
2023-04-29T12:29:27.123Z,26.52
2023-04-29T12:30:27.087Z,26.48
2023-04-29T12:31:27.094Z,26.52
2023-04-29T12:32:27.070Z,26.52
2023-04-29T12:33:27.090Z,26.49
2023-04-29T12:34:27.033Z,26.50
2023-04-29T12:35:27.074Z,26.49
2023-04-29T12:36:27.043Z,26.48
2023-04-29T12:37:27.010Z,26.50
2023-04-29T12:38:26.986Z,26.49
2023-04-29T12:39:26.944Z,26.49
2023-04-29T12:40:27.883Z,26.48
2023-04-29T12:41:27.069Z,26.48
2023-04-29T12:42:27.082Z,26.48
2023-04-29T12:43:27.105Z,26.49
2023-04-29T12:44:27.099Z,26.50
2023-04-29T12:45:27.089Z,26.50
2023-04-29T12:46:27.117Z,26.48
2023-04-29T12:47:27.100Z,26.50
2023-04-29T12:48:30.439Z,26.50
2023-04-29T12:49:28.053Z,26.53
2023-04-29T12:50:27.015Z,26.53
2023-04-29T12:51:26.983Z,26.55
2023-04-29T12:52:26.950Z,26.52